createdAt,value
2019-04-07T00:00:17.749Z,10.10
2019-04-07T00:02:48.521Z,10.20
2019-04-07T00:05:19.620Z,10.20
2019-04-07T00:07:50.142Z,10.10
2019-04-07T00:10:20.551Z,10.10
2019-04-07T00:12:50.903Z,10.10
2019-04-07T00:15:23.064Z,10.10
2019-04-07T00:17:54.342Z,10.00
2019-04-07T00:20:25.331Z,10.00
2019-04-07T00:22:55.708Z,9.90
2019-04-07T00:25:26.140Z,9.90
2019-04-07T00:27:56.398Z,9.80
2019-04-07T00:30:26.738Z,9.80
2019-04-07T00:32:57.268Z,9.70
2019-04-07T00:35:31.988Z,9.70
2019-04-07T00:37:59.611Z,9.70
2019-04-07T00:40:32.979Z,9.70
2019-04-07T00:43:03.413Z,9.70
2019-04-07T00:45:33.780Z,9.70
2019-04-07T00:48:04.090Z,9.70
2019-04-07T00:50:34.723Z,9.70
2019-04-07T00:53:05.667Z,9.70
2019-04-07T00:55:36.048Z,9.70
2019-04-07T00:58:06.375Z,9.70
2019-04-07T01:00:38.798Z,9.60
2019-04-07T01:03:10.654Z,9.50
2019-04-07T01:05:43.432Z,9.50
2019-04-07T01:08:14.018Z,9.50
2019-04-07T01:10:44.291Z,9.50
2019-04-07T01:13:15.332Z,9.40
2019-04-07T01:15:46.003Z,9.40
2019-04-07T01:18:16.514Z,9.40
2019-04-07T01:20:46.921Z,9.40
2019-04-07T01:23:17.187Z,9.40
2019-04-07T01:25:48.307Z,9.30
2019-04-07T01:28:18.452Z,9.40
2019-04-07T01:30:49.119Z,9.40
2019-04-07T01:33:19.543Z,9.30
2019-04-07T01:35:50.402Z,9.30
2019-04-07T01:38:21.325Z,9.20
2019-04-07T01:40:56.796Z,9.20
2019-04-07T01:43:29.233Z,9.20
2019-04-07T01:46:11.037Z,9.20
2019-04-07T01:48:49.421Z,9.20
2019-04-07T01:51:40.097Z,9.10
2019-04-07T01:54:21.809Z,9.10
2019-04-07T01:57:00.178Z,9.00
2019-04-07T01:59:48.686Z,9.00
2019-04-07T02:02:26.619Z,9.00
2019-04-07T02:05:01.422Z,8.90
2019-04-07T02:07:33.804Z,8.80
2019-04-07T02:10:07.630Z,8.80
2019-04-07T02:12:42.375Z,8.70
2019-04-07T02:15:21.951Z,8.70
2019-04-07T02:17:53.779Z,8.70
2019-04-07T02:20:49.011Z,8.60
2019-04-07T02:23:23.999Z,8.60
2019-04-07T02:25:55.922Z,8.60
2019-04-07T02:28:30.815Z,8.60
2019-04-07T02:31:02.957Z,8.50
2019-04-07T02:33:35.271Z,8.50
2019-04-07T02:36:17.934Z,8.40
2019-04-07T02:38:41.424Z,8.40
2019-04-07T02:41:31.121Z,8.40
2019-04-07T02:44:05.776Z,8.30
2019-04-07T02:46:53.410Z,8.20
2019-04-07T02:49:30.232Z,8.10
2019-04-07T02:52:18.579Z,8.10
2019-04-07T02:54:53.599Z,8.10
2019-04-07T02:57:29.690Z,8.00
2019-04-07T03:00:01.825Z,8.00
2019-04-07T03:02:42.508Z,8.00
2019-04-07T03:05:22.291Z,8.00
2019-04-07T03:07:57.461Z,7.90
2019-04-07T03:10:33.411Z,7.90
2019-04-07T03:13:18.300Z,7.90
2019-04-07T03:15:52.994Z,7.90
2019-04-07T03:18:31.634Z,7.90
2019-04-07T03:21:06.357Z,7.80
2019-04-07T03:23:51.397Z,7.80
2019-04-07T03:26:40.674Z,7.80
2019-04-07T03:29:18.441Z,7.80
2019-04-07T03:31:51.368Z,7.80
2019-04-07T03:34:40.816Z,7.70
2019-04-07T03:37:29.763Z,7.70
2019-04-07T03:39:54.544Z,7.60
2019-04-07T03:42:27.273Z,7.60
2019-04-07T03:44:59.136Z,7.60
2019-04-07T03:47:37.614Z,7.70
2019-04-07T03:50:12.607Z,7.70
2019-04-07T03:52:54.484Z,7.60
2019-04-07T03:55:32.444Z,7.60
2019-04-07T03:58:14.113Z,7.60
2019-04-07T04:01:20.697Z,7.60
2019-04-07T04:04:07.829Z,7.50
2019-04-07T04:06:56.681Z,7.50
2019-04-07T04:09:39.746Z,7.40
2019-04-07T04:12:21.123Z,7.40
2019-04-07T04:15:15.175Z,7.40
2019-04-07T04:17:45.708Z,7.40
2019-04-07T04:20:16.195Z,7.40
2019-04-07T04:22:46.562Z,7.40
2019-04-07T04:25:17.222Z,7.40
2019-04-07T04:27:48.520Z,7.40
2019-04-07T04:30:19.312Z,7.30
2019-04-07T04:32:49.705Z,7.30
2019-04-07T04:35:20.095Z,7.30
2019-04-07T04:37:53.392Z,7.20
2019-04-07T04:40:22.458Z,7.20
2019-04-07T04:42:54.935Z,7.20
2019-04-07T04:45:25.308Z,7.20
2019-04-07T04:47:56.201Z,7.10
2019-04-07T04:50:27.443Z,7.20
2019-04-07T04:52:58.556Z,7.20
2019-04-07T04:55:29.733Z,7.20
2019-04-07T04:58:00.331Z,7.30
2019-04-07T05:00:32.103Z,7.30
2019-04-07T05:03:03.037Z,7.40
2019-04-07T05:05:33.293Z,7.40
2019-04-07T05:08:05.500Z,7.40
2019-04-07T05:10:37.008Z,7.50
2019-04-07T05:13:07.739Z,7.50
2019-04-07T05:15:38.025Z,7.50
2019-04-07T05:18:09.783Z,7.50
2019-04-07T05:20:40.761Z,7.60
2019-04-07T05:23:11.360Z,7.60
2019-04-07T05:25:42.795Z,7.70
2019-04-07T05:28:13.235Z,7.70
2019-04-07T05:30:44.179Z,7.80
2019-04-07T05:33:14.431Z,7.80
2019-04-07T05:35:45.020Z,7.80
2019-04-07T05:38:17.950Z,7.90
2019-04-07T05:40:48.200Z,7.90
2019-04-07T05:43:18.553Z,7.90
2019-04-07T05:45:48.882Z,6.70
2019-04-07T05:48:20.300Z,8.00
2019-04-07T05:50:51.322Z,8.10
2019-04-07T05:53:22.361Z,8.10
2019-04-07T05:55:59.910Z,8.20
2019-04-07T05:58:30.248Z,8.30
2019-04-07T06:01:00.728Z,8.40
2019-04-07T06:03:31.804Z,8.40
2019-04-07T06:06:02.869Z,8.50
2019-04-07T06:08:37.954Z,8.60
2019-04-07T06:11:06.193Z,8.60
2019-04-07T06:13:36.680Z,8.70
2019-04-07T06:16:07.952Z,8.80
2019-04-07T06:18:39.438Z,8.90
2019-04-07T06:21:10.207Z,9.00
2019-04-07T06:23:41.623Z,9.00
2019-04-07T06:26:13.069Z,9.10
2019-04-07T06:28:43.890Z,9.20
2019-04-07T06:31:15.678Z,9.30
2019-04-07T06:33:46.806Z,9.40
2019-04-07T06:36:19.444Z,9.50
2019-04-07T06:38:51.820Z,9.60
2019-04-07T06:41:21.780Z,9.70
2019-04-07T06:44:08.204Z,9.80
2019-04-07T06:46:33.436Z,9.90
2019-04-07T06:49:05.911Z,10.00
2019-04-07T06:51:54.479Z,10.20
2019-04-07T06:54:40.045Z,10.30
2019-04-07T06:57:12.325Z,10.40
2019-04-07T07:00:04.167Z,10.50
2019-04-07T07:02:36.834Z,10.60
2019-04-07T07:05:12.022Z,10.70
2019-04-07T07:07:43.498Z,10.80
2019-04-07T07:10:28.693Z,10.90
2019-04-07T07:13:01.933Z,11.10
2019-04-07T07:15:50.186Z,11.20
2019-04-07T07:18:23.693Z,11.30
2019-04-07T07:21:05.122Z,11.40
2019-04-07T07:23:44.824Z,11.50
2019-04-07T07:26:12.295Z,11.60
2019-04-07T07:28:43.952Z,11.70
2019-04-07T07:31:15.478Z,11.80
2019-04-07T07:33:46.106Z,11.90
2019-04-07T07:36:19.157Z,12.00
2019-04-07T07:38:56.331Z,12.10
2019-04-07T07:41:22.367Z,12.20
2019-04-07T07:43:52.381Z,12.30
2019-04-07T07:46:23.782Z,12.40
2019-04-07T07:48:58.778Z,12.50
2019-04-07T07:51:26.935Z,12.50
2019-04-07T07:54:00.750Z,12.60
2019-04-07T07:56:29.300Z,12.70
2019-04-07T07:59:01.360Z,12.70
2019-04-07T08:01:32.221Z,12.70
2019-04-07T08:04:03.484Z,12.80
2019-04-07T08:06:33.991Z,12.90
2019-04-07T08:09:13.712Z,13.00
2019-04-07T08:11:39.944Z,13.10
2019-04-07T08:14:15.486Z,13.10
2019-04-07T08:16:43.577Z,13.10
2019-04-07T08:19:14.074Z,13.20
2019-04-07T08:21:45.582Z,13.30
2019-04-07T08:24:19.238Z,13.30
2019-04-07T08:26:48.927Z,13.30
2019-04-07T08:29:19.022Z,13.40
2019-04-07T08:31:53.176Z,13.50
2019-04-07T08:34:22.128Z,13.50
2019-04-07T08:36:53.026Z,13.60
2019-04-07T08:39:26.677Z,13.70
2019-04-07T08:41:56.082Z,13.70
2019-04-07T08:44:29.287Z,13.80
2019-04-07T08:46:59.019Z,13.80
2019-04-07T08:49:32.321Z,13.90
2019-04-07T08:52:07.990Z,13.90
2019-04-07T08:54:34.031Z,14.00
2019-04-07T08:57:11.346Z,14.00
2019-04-07T08:59:42.960Z,14.00
2019-04-07T09:02:13.670Z,13.90
2019-04-07T09:04:49.959Z,14.00
2019-04-07T09:07:17.552Z,14.00
2019-04-07T09:09:49.136Z,14.10
2019-04-07T09:12:20.680Z,14.20
2019-04-07T09:14:51.390Z,14.30
2019-04-07T09:17:32.262Z,14.40
2019-04-07T09:20:10.559Z,14.40
2019-04-07T09:22:43.493Z,14.40
2019-04-07T09:25:21.495Z,14.30
2019-04-07T09:27:54.015Z,14.40
2019-04-07T09:30:35.605Z,14.40
2019-04-07T09:33:24.244Z,14.50
2019-04-07T09:36:05.318Z,14.60
2019-04-07T09:38:57.017Z,14.80
2019-04-07T09:41:41.643Z,14.80
2019-04-07T09:44:22.292Z,14.90
2019-04-07T09:46:54.253Z,15.10
2019-04-07T09:49:30.914Z,15.10
2019-04-07T09:52:13.215Z,15.20
2019-04-07T09:54:51.809Z,15.30
2019-04-07T09:57:25.886Z,15.40
2019-04-07T09:59:58.065Z,15.60
2019-04-07T10:02:35.492Z,15.70
2019-04-07T10:05:26.114Z,15.70
2019-04-07T10:07:59.279Z,15.80
2019-04-07T10:10:42.006Z,16.00
2019-04-07T10:13:14.574Z,16.00
2019-04-07T10:15:54.998Z,16.00
2019-04-07T10:18:34.828Z,16.10
2019-04-07T10:21:09.886Z,16.10
2019-04-07T10:23:57.445Z,16.10
2019-04-07T10:26:47.515Z,16.20
2019-04-07T10:29:38.189Z,16.30
2019-04-07T10:32:27.054Z,16.30
2019-04-07T10:35:08.781Z,16.50
2019-04-07T10:37:51.334Z,16.50
2019-04-07T10:40:35.705Z,16.60
2019-04-07T10:43:18.618Z,16.80
2019-04-07T10:45:56.061Z,16.90
2019-04-07T10:48:40.137Z,17.00
2019-04-07T10:54:47.101Z,17.40
2019-04-07T10:57:59.859Z,17.30
2019-04-07T11:03:21.391Z,17.30
2019-04-07T11:05:53.722Z,17.40
2019-04-07T11:08:41.037Z,17.50
2019-04-07T11:14:45.469Z,17.50
2019-04-07T11:17:17.544Z,17.50
2019-04-07T11:23:19.150Z,17.50
2019-04-07T11:25:51.353Z,17.20
2019-04-07T11:28:32.184Z,17.20
2019-04-07T11:31:16.824Z,17.30
2019-04-07T11:33:51.350Z,17.40
2019-04-07T11:36:32.012Z,17.40
2019-04-07T11:39:11.146Z,17.40
2019-04-07T11:41:52.722Z,17.40
2019-04-07T11:44:34.006Z,17.50
2019-04-07T11:47:15.368Z,17.60
2019-04-07T11:49:49.584Z,17.50
2019-04-07T11:52:26.308Z,17.60
2019-04-07T11:55:00.962Z,17.60
2019-04-07T11:57:34.336Z,17.70
2019-04-07T12:00:18.395Z,17.70
2019-04-07T12:02:53.651Z,17.80
2019-04-07T12:05:26.796Z,17.90
2019-04-07T12:08:16.939Z,18.00
2019-04-07T12:10:58.523Z,18.10
2019-04-07T12:13:37.445Z,18.20
2019-04-07T12:16:15.682Z,18.30
2019-04-07T12:18:52.457Z,18.20
2019-04-07T12:21:25.468Z,18.30
2019-04-07T12:24:13.651Z,18.40
2019-04-07T12:26:51.832Z,18.50
2019-04-07T12:29:38.694Z,18.60
2019-04-07T12:32:28.278Z,18.70
2019-04-07T12:35:01.108Z,18.70
2019-04-07T12:37:39.251Z,18.80
2019-04-07T12:40:10.925Z,18.90
2019-04-07T12:42:59.259Z,18.90
2019-04-07T12:45:37.366Z,19.00
2019-04-07T12:48:11.802Z,19.00
2019-04-07T12:50:51.047Z,19.00
2019-04-07T12:53:23.640Z,19.00
2019-04-07T12:56:00.772Z,19.10
2019-04-07T12:58:50.606Z,19.10
2019-04-07T13:01:22.902Z,19.20
2019-04-07T13:04:11.166Z,19.00
2019-04-07T13:06:59.658Z,19.00
2019-04-07T13:09:34.552Z,18.80
2019-04-07T13:12:06.594Z,18.70
2019-04-07T13:14:39.965Z,18.70
2019-04-07T13:17:31.425Z,18.80
2019-04-07T13:20:00.965Z,18.80
2019-04-07T13:22:34.424Z,18.90
2019-04-07T13:25:09.158Z,19.00
2019-04-07T13:27:41.569Z,19.10
2019-04-07T13:30:21.366Z,19.10
2019-04-07T13:33:01.912Z,19.30
2019-04-07T13:35:33.061Z,19.50
2019-04-07T13:38:05.572Z,19.60
2019-04-07T13:40:38.275Z,19.80
2019-04-07T13:43:18.956Z,19.90
2019-04-07T13:45:53.426Z,20.00
2019-04-07T13:48:23.831Z,20.10
2019-04-07T13:50:55.665Z,20.10
2019-04-07T13:53:36.707Z,20.20
2019-04-07T13:56:09.938Z,20.20
2019-04-07T13:58:50.914Z,20.20
2019-04-07T14:01:31.149Z,20.30
2019-04-07T14:04:12.040Z,20.30
2019-04-07T14:06:54.427Z,20.30
2019-04-07T14:09:41.736Z,20.30
2019-04-07T14:12:17.320Z,20.30
2019-04-07T14:14:53.867Z,20.20
2019-04-07T14:17:26.157Z,20.20
2019-04-07T14:20:04.891Z,20.20
2019-04-07T14:22:39.945Z,20.20
2019-04-07T14:25:12.897Z,20.00
2019-04-07T14:27:50.733Z,19.90
2019-04-07T14:30:34.463Z,19.90
2019-04-07T14:33:21.713Z,19.90
2019-04-07T14:35:59.678Z,19.70
2019-04-07T14:38:35.555Z,19.70
2019-04-07T14:41:09.918Z,19.70
2019-04-07T14:44:00.080Z,19.60
2019-04-07T14:46:48.999Z,19.50
2019-04-07T14:49:33.316Z,19.40
2019-04-07T14:52:21.000Z,19.40
2019-04-07T14:55:09.579Z,19.40
2019-04-07T14:57:53.586Z,19.50
2019-04-07T15:00:29.221Z,19.40
2019-04-07T15:02:59.583Z,19.40
2019-04-07T15:05:35.248Z,19.40
2019-04-07T15:08:17.196Z,19.40
2019-04-07T15:10:50.097Z,19.40
2019-04-07T15:13:27.909Z,19.50
2019-04-07T15:15:58.328Z,19.60
2019-04-07T15:18:29.681Z,19.60
2019-04-07T15:21:00.066Z,19.70
2019-04-07T15:23:32.274Z,19.70
2019-04-07T15:26:04.140Z,19.70
2019-04-07T15:28:34.695Z,19.80
2019-04-07T15:31:06.086Z,19.70
2019-04-07T15:33:37.061Z,19.70
2019-04-07T15:36:09.140Z,19.70
2019-04-07T15:38:40.837Z,19.70
2019-04-07T15:41:15.365Z,19.70
2019-04-07T15:43:44.112Z,19.70
2019-04-07T15:46:17.340Z,19.80
2019-04-07T15:48:47.642Z,19.80
2019-04-07T15:51:19.632Z,19.80
2019-04-07T15:53:51.962Z,19.80
2019-04-07T15:56:22.188Z,19.80
2019-04-07T15:58:52.908Z,19.80
2019-04-07T16:01:23.786Z,19.80
2019-04-07T16:03:54.851Z,19.80
2019-04-07T16:06:25.961Z,19.80
2019-04-07T16:08:59.599Z,19.80
2019-04-07T16:11:30.221Z,19.80
2019-04-07T16:14:00.441Z,19.80
2019-04-07T16:16:30.805Z,19.90
2019-04-07T16:19:01.817Z,19.90
2019-04-07T16:21:33.114Z,19.90
2019-04-07T16:24:03.776Z,20.00
2019-04-07T16:26:36.973Z,20.00
2019-04-07T16:29:08.068Z,20.10
2019-04-07T16:31:38.085Z,20.30
2019-04-07T16:34:10.339Z,20.40
2019-04-07T16:36:41.313Z,20.60
2019-04-07T16:39:11.864Z,20.40
2019-04-07T16:41:44.207Z,20.80
2019-04-07T16:44:14.457Z,20.90
2019-04-07T16:46:45.631Z,21.00
2019-04-07T16:49:17.967Z,21.10
2019-04-07T16:51:49.455Z,21.30
2019-04-07T16:54:19.945Z,21.60
2019-04-07T16:56:54.685Z,21.80
2019-04-07T16:59:22.522Z,21.90
2019-04-07T17:01:52.993Z,22.00
2019-04-07T17:04:23.308Z,22.00
2019-04-07T17:07:00.188Z,22.10
2019-04-07T17:09:28.052Z,21.90
2019-04-07T17:11:57.858Z,21.80
2019-04-07T17:14:32.092Z,21.60
2019-04-07T17:17:00.445Z,21.40
2019-04-07T17:19:32.167Z,21.10
2019-04-07T17:22:03.083Z,20.80
2019-04-07T17:24:34.527Z,20.40
2019-04-07T17:27:07.708Z,20.10
2019-04-07T17:29:36.798Z,19.70
2019-04-07T17:32:10.916Z,19.30
2019-04-07T17:35:17.453Z,19.00
2019-04-07T17:38:06.556Z,18.70
2019-04-07T17:40:37.937Z,18.40
2019-04-07T17:43:10.686Z,18.10
2019-04-07T17:46:30.740Z,17.90
2019-04-07T17:49:33.085Z,17.70
2019-04-07T17:52:11.117Z,17.40
2019-04-07T17:58:08.893Z,17.10
2019-04-07T18:04:00.716Z,16.70
2019-04-07T18:06:40.429Z,16.60
2019-04-07T18:09:29.838Z,16.50
2019-04-07T18:29:31.081Z,16.20
2019-04-07T18:32:11.215Z,15.80
2019-04-07T18:34:44.973Z,15.70
2019-04-07T18:37:25.769Z,15.70
2019-04-07T18:40:16.339Z,15.60
2019-04-07T18:49:40.909Z,15.40
2019-04-07T18:52:36.445Z,15.30
2019-04-07T18:55:16.047Z,15.30
2019-04-07T18:58:04.579Z,15.20
2019-04-07T19:00:57.621Z,15.10
2019-04-07T19:03:53.354Z,15.00
2019-04-07T19:06:28.848Z,14.90
2019-04-07T19:09:13.119Z,14.80
2019-04-07T19:12:13.279Z,14.70
2019-04-07T19:14:45.974Z,14.60
2019-04-07T19:17:24.047Z,14.60
2019-04-07T19:20:06.646Z,14.50
2019-04-07T19:22:39.811Z,14.50
2019-04-07T19:25:17.464Z,14.40
2019-04-07T19:28:05.993Z,14.40
2019-04-07T19:30:55.102Z,14.30
2019-04-07T19:33:45.323Z,14.20
2019-04-07T19:36:23.125Z,14.20
2019-04-07T19:39:00.753Z,14.10
2019-04-07T19:41:37.008Z,14.10
2019-04-07T19:44:33.928Z,14.10
2019-04-07T19:47:13.006Z,14.00
2019-04-07T19:49:52.960Z,13.90
2019-04-07T19:52:27.570Z,13.90
2019-04-07T19:55:08.547Z,13.90
2019-04-07T19:57:43.306Z,13.80
2019-04-07T20:00:33.313Z,13.80
2019-04-07T20:03:09.615Z,13.80
2019-04-07T20:05:41.744Z,13.80
2019-04-07T20:08:25.594Z,13.80
2019-04-07T20:11:16.407Z,13.80
2019-04-07T20:13:58.683Z,13.80
2019-04-07T20:16:36.798Z,13.80
2019-04-07T20:19:18.750Z,13.80
2019-04-07T20:21:54.714Z,13.80
2019-04-07T20:24:38.048Z,13.70
2019-04-07T20:27:28.475Z,13.70
2019-04-07T20:30:06.270Z,13.70
2019-04-07T20:32:44.726Z,13.70
2019-04-07T20:35:16.783Z,13.70
2019-04-07T20:38:06.309Z,13.60
2019-04-07T20:40:43.339Z,13.60
2019-04-07T20:43:29.632Z,13.50
2019-04-07T20:46:23.933Z,13.50
2019-04-07T20:49:12.290Z,13.50
2019-04-07T20:51:48.004Z,13.40
2019-04-07T20:54:23.660Z,13.40
2019-04-07T20:57:16.960Z,13.40
2019-04-07T20:59:54.131Z,13.30
2019-04-07T21:02:39.246Z,13.30
2019-04-07T21:05:46.265Z,13.30
2019-04-07T21:08:23.340Z,13.20
2019-04-07T21:11:04.748Z,13.10
2019-04-07T21:13:55.389Z,13.10
2019-04-07T21:16:36.849Z,13.00
2019-04-07T21:19:37.500Z,13.00
2019-04-07T21:22:09.052Z,12.90
2019-04-07T21:24:49.762Z,12.90
2019-04-07T21:27:36.180Z,12.80
2019-04-07T21:30:14.711Z,12.80
2019-04-07T21:33:03.241Z,12.70
2019-04-07T21:35:35.541Z,12.60
2019-04-07T21:38:29.694Z,12.60
2019-04-07T21:41:16.819Z,12.50
2019-04-07T21:43:48.865Z,12.40
2019-04-07T21:46:26.445Z,12.30
2019-04-07T21:49:04.051Z,12.30
2019-04-07T21:51:35.905Z,12.20
2019-04-07T21:54:07.914Z,12.20
2019-04-07T21:56:43.158Z,12.10
2019-04-07T21:59:26.561Z,12.10
2019-04-07T22:02:12.117Z,12.10
2019-04-07T22:04:59.593Z,12.00
2019-04-07T22:07:37.597Z,12.00
2019-04-07T22:10:13.718Z,11.90
2019-04-07T22:12:44.305Z,11.80
2019-04-07T22:15:45.880Z,11.80
2019-04-07T22:18:08.966Z,11.70
2019-04-07T22:20:39.954Z,11.70
2019-04-07T22:23:10.205Z,11.60
2019-04-07T22:25:46.501Z,11.60
2019-04-07T22:28:16.843Z,11.60
2019-04-07T22:30:52.206Z,11.60
2019-04-07T22:33:25.304Z,11.60
2019-04-07T22:36:01.803Z,11.60
2019-04-07T22:38:32.083Z,11.60
2019-04-07T22:41:02.766Z,11.60
2019-04-07T22:43:36.816Z,11.60
2019-04-07T22:46:16.407Z,11.50
2019-04-07T22:48:39.148Z,11.50
2019-04-07T22:51:12.053Z,11.50
2019-04-07T22:53:49.657Z,11.50
2019-04-07T22:56:32.331Z,11.40
2019-04-07T22:59:03.614Z,11.30
2019-04-07T23:01:34.051Z,11.30
2019-04-07T23:04:04.413Z,11.30
2019-04-07T23:06:34.715Z,11.20
2019-04-07T23:09:07.793Z,11.20
2019-04-07T23:11:44.854Z,11.20
2019-04-07T23:14:15.740Z,11.10
2019-04-07T23:16:46.459Z,11.10
2019-04-07T23:19:19.724Z,11.10
2019-04-07T23:21:49.989Z,11.00
2019-04-07T23:24:36.935Z,11.00
2019-04-07T23:27:08.166Z,10.90
2019-04-07T23:29:38.777Z,10.90
2019-04-07T23:32:17.995Z,10.80
2019-04-07T23:34:48.300Z,10.80
2019-04-07T23:37:18.644Z,10.70
2019-04-07T23:39:49.592Z,10.70
2019-04-07T23:42:24.330Z,10.60
2019-04-07T23:47:35.503Z,10.60
2019-04-07T23:50:07.730Z,10.60
2019-04-07T23:52:39.000Z,10.60
2019-04-07T23:55:11.391Z,10.60
2019-04-07T23:57:42.322Z,10.50
